createdAt,value
2018-06-23T00:00:16.773Z,2.97
2018-06-23T00:02:44.132Z,3.70
2018-06-23T00:05:11.452Z,3.17
2018-06-23T00:07:38.728Z,5.20
2018-06-23T00:10:06.092Z,3.30
2018-06-23T00:12:33.321Z,3.80
2018-06-23T00:15:00.589Z,3.07
2018-06-23T00:17:27.844Z,4.43
2018-06-23T00:19:55.077Z,4.67
2018-06-23T00:22:22.372Z,7.60
2018-06-23T00:24:49.688Z,7.40
2018-06-23T00:27:17.024Z,4.70
2018-06-23T00:29:44.264Z,7.83
2018-06-23T00:32:11.526Z,5.83
2018-06-23T00:34:38.796Z,5.37
2018-06-23T00:37:06.112Z,5.67
2018-06-23T00:39:33.396Z,3.53
2018-06-23T00:42:00.633Z,8.90
2018-06-23T00:44:27.876Z,11.17
2018-06-23T00:46:55.120Z,5.10
2018-06-23T00:49:22.525Z,6.23
2018-06-23T00:51:49.784Z,3.90
2018-06-23T00:54:17.043Z,5.43
2018-06-23T00:56:44.324Z,4.93
2018-06-23T00:59:23.137Z,4.70
2018-06-23T01:01:50.417Z,7.10
2018-06-23T01:04:17.723Z,6.70
2018-06-23T01:06:44.964Z,6.23
2018-06-23T01:09:12.179Z,5.43
2018-06-23T01:11:39.396Z,7.03
2018-06-23T01:14:06.608Z,4.50
2018-06-23T01:16:33.936Z,6.03
2018-06-23T01:19:01.142Z,7.00
2018-06-23T01:21:28.388Z,8.23
2018-06-23T01:23:55.632Z,12.60
2018-06-23T01:26:22.873Z,10.60
2018-06-23T01:28:50.076Z,7.73
2018-06-23T01:31:17.325Z,6.73
2018-06-23T01:33:44.644Z,9.40
2018-06-23T01:36:11.912Z,10.40
2018-06-23T01:38:39.126Z,7.27
2018-06-23T01:41:06.372Z,9.20
2018-06-23T01:43:33.567Z,6.30
2018-06-23T01:46:00.796Z,4.17
2018-06-23T01:48:28.012Z,8.77
2018-06-23T01:50:55.220Z,6.03
2018-06-23T01:53:22.462Z,12.13
2018-06-23T01:55:49.678Z,6.97
2018-06-23T01:58:16.916Z,6.60
2018-06-23T02:00:44.124Z,5.63
2018-06-23T02:03:11.336Z,5.27
2018-06-23T02:05:38.559Z,16.23
2018-06-23T02:08:05.936Z,8.80
2018-06-23T02:10:33.224Z,8.30
2018-06-23T02:13:00.428Z,7.10
2018-06-23T02:15:33.301Z,6.53
2018-06-23T02:18:06.209Z,10.60
2018-06-23T02:20:39.156Z,12.90
2018-06-23T02:23:12.060Z,5.13
2018-06-23T02:25:45.021Z,6.33
2018-06-23T02:28:18.121Z,9.70
2018-06-23T02:30:51.047Z,9.13
2018-06-23T02:33:24.081Z,8.40
2018-06-23T02:35:51.277Z,6.80
2018-06-23T02:38:18.504Z,9.40
2018-06-23T02:40:45.708Z,4.27
2018-06-23T02:43:12.947Z,7.33
2018-06-23T02:45:40.181Z,8.40
2018-06-23T02:48:07.403Z,5.77
2018-06-23T02:50:34.655Z,8.83
2018-06-23T02:53:01.881Z,10.40
2018-06-23T02:55:29.172Z,7.33
2018-06-23T02:57:56.431Z,8.70
2018-06-23T03:00:23.644Z,6.73
2018-06-23T03:02:50.896Z,8.10
2018-06-23T03:05:18.124Z,6.73
2018-06-23T03:07:45.433Z,7.70
2018-06-23T03:10:12.660Z,8.10
2018-06-23T03:12:39.867Z,7.60
2018-06-23T03:15:07.072Z,8.80
2018-06-23T03:17:34.272Z,11.53
2018-06-23T03:20:01.536Z,6.37
2018-06-23T03:22:28.748Z,8.93
2018-06-23T03:24:55.973Z,6.60
2018-06-23T03:27:23.215Z,8.60
2018-06-23T03:29:50.426Z,4.83
2018-06-23T03:32:17.621Z,8.57
2018-06-23T03:34:44.824Z,10.03
2018-06-23T03:37:12.032Z,6.93
2018-06-23T03:39:39.264Z,9.90
2018-06-23T03:42:06.485Z,5.93
2018-06-23T03:44:33.708Z,12.10
2018-06-23T03:47:00.944Z,7.27
2018-06-23T03:49:28.168Z,11.27
2018-06-23T03:51:55.381Z,6.33
2018-06-23T03:54:22.612Z,11.97
2018-06-23T03:56:49.912Z,9.37
2018-06-23T03:59:17.164Z,8.10
2018-06-23T04:01:44.420Z,5.33
2018-06-23T04:04:11.660Z,8.67
2018-06-23T04:06:38.883Z,7.03
2018-06-23T04:09:07.995Z,6.50
2018-06-23T04:11:35.324Z,7.13
2018-06-23T04:14:02.472Z,6.00
2018-06-23T04:16:29.684Z,7.97
2018-06-23T04:18:57.701Z,6.40
2018-06-23T04:21:25.900Z,8.03
2018-06-23T04:23:53.096Z,5.20
2018-06-23T04:26:20.320Z,5.80
2018-06-23T04:28:47.520Z,5.60
2018-06-23T04:31:14.740Z,5.80
2018-06-23T04:33:42.312Z,6.00
2018-06-23T04:36:09.712Z,9.60
2018-06-23T04:38:37.020Z,7.93
2018-06-23T04:41:04.276Z,12.00
2018-06-23T04:43:31.521Z,9.63
2018-06-23T04:45:58.724Z,14.43
2018-06-23T04:48:25.948Z,10.70
2018-06-23T04:50:53.172Z,6.37
2018-06-23T04:53:20.387Z,9.83
2018-06-23T04:55:48.011Z,8.43
2018-06-23T04:58:15.224Z,8.20
2018-06-23T05:00:42.428Z,9.63
2018-06-23T05:03:09.620Z,6.30
2018-06-23T05:05:36.900Z,7.50
2018-06-23T05:08:04.095Z,8.43
2018-06-23T05:10:31.307Z,7.87
2018-06-23T05:12:58.500Z,11.20
2018-06-23T05:15:25.712Z,9.27
2018-06-23T05:17:52.924Z,11.53
2018-06-23T05:20:20.287Z,11.00
2018-06-23T05:22:47.399Z,11.83
2018-06-23T05:25:14.727Z,9.23
2018-06-23T05:27:41.976Z,11.73
2018-06-23T05:30:09.200Z,8.67
2018-06-23T05:32:36.417Z,12.30
2018-06-23T05:35:03.654Z,15.63
2018-06-23T05:37:31.111Z,13.27
2018-06-23T05:39:58.889Z,12.67
2018-06-23T05:42:26.118Z,15.93
2018-06-23T05:44:53.387Z,15.23
2018-06-23T05:47:20.801Z,13.93
2018-06-23T05:49:48.028Z,14.70
2018-06-23T05:52:15.248Z,10.20
2018-06-23T05:54:42.519Z,11.40
2018-06-23T05:57:09.784Z,8.20
2018-06-23T05:59:36.980Z,12.93
2018-06-23T06:02:04.232Z,17.20
2018-06-23T06:04:31.472Z,11.03
2018-06-23T06:06:58.707Z,13.07
2018-06-23T06:09:25.947Z,15.10
2018-06-23T06:11:53.156Z,14.80
2018-06-23T06:14:20.416Z,11.57
2018-06-23T06:17:25.100Z,13.50
2018-06-23T06:19:56.431Z,10.83
2018-06-23T06:22:25.013Z,12.40
2018-06-23T06:24:52.236Z,12.13
2018-06-23T06:27:19.452Z,9.17
2018-06-23T06:29:46.696Z,9.67
2018-06-23T06:32:13.983Z,13.43
2018-06-23T06:34:41.192Z,24.83
2018-06-23T06:37:08.416Z,10.27
2018-06-23T06:39:35.664Z,14.07
2018-06-23T06:42:03.219Z,15.10
2018-06-23T06:44:30.448Z,9.77
2018-06-23T06:46:57.856Z,16.17
2018-06-23T06:49:25.080Z,9.60
2018-06-23T06:51:52.819Z,8.83
2018-06-23T06:54:20.056Z,8.07
2018-06-23T06:56:47.740Z,10.37
2018-06-23T06:59:14.980Z,12.20
2018-06-23T07:01:42.212Z,10.40
2018-06-23T07:04:09.424Z,12.23
2018-06-23T07:06:37.179Z,17.30
2018-06-23T07:09:07.832Z,9.40
2018-06-23T07:11:35.053Z,13.60
2018-06-23T07:14:02.380Z,8.53
2018-06-23T07:16:29.596Z,14.60
2018-06-23T07:18:56.860Z,17.00
2018-06-23T07:21:24.064Z,13.70
2018-06-23T07:23:51.375Z,11.60
2018-06-23T07:26:18.504Z,17.93
2018-06-23T07:28:45.771Z,10.90
2018-06-23T07:31:12.963Z,26.53
2018-06-23T07:33:40.180Z,14.47
2018-06-23T07:36:07.401Z,25.07
2018-06-23T07:38:34.785Z,9.60
2018-06-23T07:41:02.068Z,13.03
2018-06-23T07:43:29.276Z,10.23
2018-06-23T07:45:56.604Z,12.63
2018-06-23T07:48:23.824Z,15.03
2018-06-23T07:50:51.080Z,11.70
2018-06-23T07:53:18.364Z,21.10
2018-06-23T07:55:45.599Z,12.80
2018-06-23T07:58:13.074Z,11.50
2018-06-23T08:00:40.280Z,11.37
2018-06-23T08:03:07.507Z,12.50
2018-06-23T08:05:34.801Z,11.67
2018-06-23T08:08:02.076Z,15.33
2018-06-23T08:10:29.287Z,9.40
2018-06-23T08:12:56.492Z,12.70
2018-06-23T08:15:23.712Z,14.40
2018-06-23T08:17:51.196Z,11.80
2018-06-23T08:20:18.392Z,16.50
2018-06-23T08:22:45.607Z,15.00
2018-06-23T08:25:12.828Z,11.50
2018-06-23T08:27:40.057Z,13.47
2018-06-23T08:30:07.264Z,13.53
2018-06-23T08:32:34.541Z,8.87
2018-06-23T08:35:01.804Z,10.77
2018-06-23T08:37:29.032Z,16.00
2018-06-23T08:39:56.228Z,10.63
2018-06-23T08:42:23.440Z,22.10
2018-06-23T08:44:50.663Z,5.83
2018-06-23T08:47:17.897Z,9.10
2018-06-23T08:49:45.089Z,9.53
2018-06-23T08:52:12.336Z,7.90
2018-06-23T08:54:39.592Z,7.60
2018-06-23T08:57:06.800Z,8.60
2018-06-23T08:59:34.000Z,11.50
2018-06-23T09:02:01.292Z,12.60
2018-06-23T09:04:28.512Z,9.57
2018-06-23T09:06:55.790Z,9.10
2018-06-23T09:09:23.119Z,7.07
2018-06-23T09:11:50.324Z,12.03
2018-06-23T09:14:17.532Z,10.93
2018-06-23T09:16:44.789Z,15.93
2018-06-23T09:19:11.995Z,6.93
2018-06-23T09:21:39.187Z,9.43
2018-06-23T09:24:06.407Z,9.87
2018-06-23T09:26:33.636Z,17.50
2018-06-23T09:29:00.862Z,7.10
2018-06-23T09:31:28.060Z,10.80
2018-06-23T09:33:55.312Z,6.50
2018-06-23T09:36:22.553Z,12.63
2018-06-23T09:38:49.847Z,10.07
2018-06-23T09:41:17.063Z,12.20
2018-06-23T09:43:44.302Z,12.37
2018-06-23T09:46:11.545Z,12.80
2018-06-23T09:48:38.832Z,12.27
2018-06-23T09:51:06.042Z,11.10
2018-06-23T09:53:33.264Z,6.90
2018-06-23T09:56:00.513Z,6.47
2018-06-23T09:58:27.764Z,7.93
2018-06-23T10:00:54.971Z,11.97
2018-06-23T10:03:22.192Z,9.40
2018-06-23T10:05:49.444Z,9.40
2018-06-23T10:08:16.659Z,8.70
2018-06-23T10:10:43.885Z,7.37
2018-06-23T10:13:11.104Z,12.00
2018-06-23T10:15:38.321Z,8.23
2018-06-23T10:18:05.518Z,7.27
2018-06-23T10:20:32.735Z,9.10
2018-06-23T10:22:59.962Z,6.00
2018-06-23T10:25:27.188Z,5.33
2018-06-23T10:27:54.396Z,7.27
2018-06-23T10:30:21.603Z,5.83
2018-06-23T10:32:48.840Z,8.80
2018-06-23T10:35:16.048Z,10.83
2018-06-23T10:37:43.271Z,14.50
2018-06-23T10:40:10.721Z,8.60
2018-06-23T10:42:37.970Z,6.77
2018-06-23T10:45:05.184Z,10.13
2018-06-23T10:47:32.830Z,11.43
2018-06-23T10:50:00.191Z,9.77
2018-06-23T10:52:27.628Z,8.23
2018-06-23T10:54:54.819Z,8.43
2018-06-23T10:57:22.045Z,9.27
2018-06-23T10:59:49.301Z,4.27
2018-06-23T11:02:16.728Z,7.30
2018-06-23T11:04:44.090Z,10.60
2018-06-23T11:07:11.348Z,10.00
2018-06-23T11:09:38.768Z,9.00
2018-06-23T11:12:05.988Z,10.70
2018-06-23T11:14:33.244Z,11.27
2018-06-23T11:17:00.537Z,14.30
2018-06-23T11:19:27.760Z,17.07
2018-06-23T11:21:55.025Z,9.53
2018-06-23T11:24:22.283Z,7.67
2018-06-23T11:26:49.579Z,10.50
2018-06-23T11:29:16.839Z,9.70
2018-06-23T11:31:44.092Z,11.43
2018-06-23T11:34:11.319Z,8.53
2018-06-23T11:36:38.675Z,10.73
2018-06-23T11:39:07.425Z,9.03
2018-06-23T11:41:34.665Z,10.40
2018-06-23T11:44:02.109Z,11.37
2018-06-23T11:46:29.374Z,11.80
2018-06-23T11:48:56.644Z,12.87
2018-06-23T11:51:23.888Z,8.43
2018-06-23T11:53:51.197Z,8.83
2018-06-23T11:56:18.419Z,10.43
2018-06-23T11:58:46.598Z,9.40
2018-06-23T12:01:13.915Z,14.20
2018-06-23T12:03:41.119Z,7.97
2018-06-23T12:06:08.413Z,8.00
2018-06-23T12:08:35.632Z,12.97
2018-06-23T12:11:02.883Z,12.97
2018-06-23T12:13:30.127Z,11.00
2018-06-23T12:15:57.468Z,13.87
2018-06-23T12:18:24.684Z,12.90
2018-06-23T12:20:52.029Z,11.10
2018-06-23T12:23:19.275Z,13.13
2018-06-23T12:25:46.548Z,6.67
2018-06-23T12:28:13.960Z,8.73
2018-06-23T12:30:41.335Z,10.03
2018-06-23T12:33:08.584Z,8.47
2018-06-23T12:35:35.828Z,9.40
2018-06-23T12:38:03.088Z,12.03
2018-06-23T12:40:30.404Z,20.57
2018-06-23T12:42:57.631Z,16.20
2018-06-23T12:45:24.868Z,8.70
2018-06-23T12:47:52.091Z,10.80
2018-06-23T12:50:19.437Z,9.77
2018-06-23T12:52:46.711Z,9.50
2018-06-23T12:55:14.023Z,13.27
2018-06-23T12:57:41.244Z,8.60
2018-06-23T13:00:08.541Z,11.90
2018-06-23T13:02:35.888Z,8.53
2018-06-23T13:05:03.481Z,11.33
2018-06-23T13:07:30.793Z,8.70
2018-06-23T13:09:58.051Z,12.40
2018-06-23T13:12:25.302Z,7.97
2018-06-23T13:14:52.541Z,11.80
2018-06-23T13:17:19.824Z,7.07
2018-06-23T13:19:47.054Z,7.20
2018-06-23T13:22:14.375Z,15.30
2018-06-23T13:24:41.615Z,9.70
2018-06-23T13:27:08.884Z,8.60
2018-06-23T13:29:36.179Z,13.63
2018-06-23T13:32:03.443Z,10.50
2018-06-23T13:34:30.740Z,11.23
2018-06-23T13:36:57.950Z,10.00
2018-06-23T13:39:25.309Z,8.73
2018-06-23T13:41:52.520Z,8.10
2018-06-23T13:44:19.843Z,10.13
2018-06-23T13:46:48.117Z,13.77
2018-06-23T13:49:15.401Z,8.10
2018-06-23T13:51:42.649Z,11.37
2018-06-23T13:54:09.947Z,9.00
2018-06-23T13:56:37.235Z,9.87
2018-06-23T13:59:04.569Z,9.30
2018-06-23T14:01:31.824Z,9.33
2018-06-23T14:03:59.146Z,10.63
2018-06-23T14:06:26.472Z,8.00
2018-06-23T14:08:53.742Z,11.00
2018-06-23T14:11:21.205Z,8.70
2018-06-23T14:13:48.573Z,13.13
2018-06-23T14:16:15.884Z,8.63
2018-06-23T14:18:43.219Z,13.43
2018-06-23T14:21:10.486Z,6.77
2018-06-23T14:23:37.728Z,8.83
2018-06-23T14:26:04.992Z,19.47
2018-06-23T14:28:32.271Z,9.93
2018-06-23T14:30:59.484Z,13.33
2018-06-23T14:33:26.773Z,11.60
2018-06-23T14:35:53.996Z,9.57
2018-06-23T14:38:21.223Z,8.07
2018-06-23T14:40:48.608Z,12.10
2018-06-23T14:43:15.845Z,12.00
2018-06-23T14:45:43.112Z,6.30
2018-06-23T14:48:10.351Z,7.53
2018-06-23T14:50:37.609Z,8.70
2018-06-23T14:53:04.868Z,7.17
2018-06-23T14:55:32.193Z,10.43
2018-06-23T14:57:59.448Z,6.30
2018-06-23T15:00:26.756Z,5.47
2018-06-23T15:02:53.975Z,8.10
2018-06-23T15:05:21.282Z,7.40
2018-06-23T15:07:48.519Z,10.90
2018-06-23T15:11:27.932Z,7.93
2018-06-23T15:13:55.184Z,7.80
2018-06-23T15:16:22.395Z,10.27
2018-06-23T15:18:49.632Z,6.27
2018-06-23T15:21:16.901Z,13.90
2018-06-23T15:23:44.138Z,11.33
2018-06-23T15:26:11.376Z,9.00
2018-06-23T15:28:38.628Z,7.60
2018-06-23T15:31:05.835Z,8.00
2018-06-23T15:33:33.122Z,12.87
2018-06-23T15:36:00.333Z,8.10
2018-06-23T15:38:27.557Z,7.60
2018-06-23T15:40:54.806Z,7.87
2018-06-23T15:43:22.076Z,5.43
2018-06-23T15:45:49.344Z,6.60
2018-06-23T15:48:16.644Z,8.67
2018-06-23T15:50:43.969Z,6.90
2018-06-23T15:53:11.193Z,8.73
2018-06-23T15:55:38.688Z,7.47
2018-06-23T15:58:05.912Z,5.40
2018-06-23T16:00:33.139Z,6.17
2018-06-23T16:03:00.395Z,8.13
2018-06-23T16:05:27.627Z,6.30
2018-06-23T16:07:54.851Z,5.70
2018-06-23T16:10:24.824Z,7.40
2018-06-23T16:12:52.839Z,6.80
2018-06-23T16:15:20.073Z,3.97
2018-06-23T16:17:47.408Z,8.00
2018-06-23T16:20:14.924Z,11.43
2018-06-23T16:22:42.469Z,4.83
2018-06-23T16:25:09.732Z,5.93
2018-06-23T16:27:36.940Z,7.37
2018-06-23T16:30:04.528Z,10.47
2018-06-23T16:32:31.739Z,15.70
2018-06-23T16:34:59.125Z,14.10
2018-06-23T16:37:27.089Z,5.37
2018-06-23T16:39:54.440Z,7.77
2018-06-23T16:42:21.651Z,8.10
2018-06-23T16:44:48.925Z,8.10
2018-06-23T16:47:16.200Z,5.93
2018-06-23T16:49:43.439Z,7.53
2018-06-23T16:52:10.914Z,4.50
2018-06-23T16:54:38.230Z,7.30
2018-06-23T16:57:05.476Z,5.70
2018-06-23T16:59:32.756Z,8.03
2018-06-23T17:02:00.026Z,7.40
2018-06-23T17:04:27.318Z,7.40
2018-06-23T17:06:54.479Z,7.90
2018-06-23T17:09:21.720Z,9.50
2018-06-23T17:11:49.000Z,8.17
2018-06-23T17:14:16.316Z,7.13
2018-06-23T17:16:43.512Z,3.93
2018-06-23T17:19:10.760Z,5.30
2018-06-23T17:21:37.985Z,5.13
2018-06-23T17:24:05.249Z,5.73
2018-06-23T17:26:32.488Z,6.00
2018-06-23T17:28:59.741Z,7.03
2018-06-23T17:31:26.985Z,10.73
2018-06-23T17:33:54.217Z,7.77
2018-06-23T17:36:21.407Z,8.77
2018-06-23T17:38:48.644Z,8.10
2018-06-23T17:41:16.039Z,8.47
2018-06-23T17:43:43.292Z,5.00
2018-06-23T17:46:10.539Z,5.50
2018-06-23T17:48:37.771Z,10.60
2018-06-23T17:51:05.351Z,5.43
2018-06-23T17:53:32.564Z,7.50
2018-06-23T17:55:59.764Z,4.60
2018-06-23T17:58:27.004Z,6.80
2018-06-23T18:00:54.296Z,5.30
2018-06-23T18:03:21.483Z,8.10
2018-06-23T18:05:48.680Z,7.33
2018-06-23T18:08:15.932Z,6.90
2018-06-23T18:10:43.187Z,7.70
2018-06-23T18:13:10.407Z,8.43
2018-06-23T18:15:37.816Z,7.57
2018-06-23T18:18:05.064Z,9.30
2018-06-23T18:20:32.271Z,8.40
2018-06-23T18:22:59.510Z,13.20
2018-06-23T18:25:26.731Z,7.80
2018-06-23T18:27:53.961Z,9.60
2018-06-23T18:30:21.156Z,7.70
2018-06-23T18:32:48.393Z,11.43
2018-06-23T18:35:15.636Z,20.53
2018-06-23T18:37:42.875Z,11.57
2018-06-23T18:40:10.088Z,9.93
2018-06-23T18:42:37.843Z,11.40
2018-06-23T18:45:05.107Z,9.77
2018-06-23T18:47:32.319Z,11.47
2018-06-23T18:49:59.691Z,9.10
2018-06-23T18:52:26.903Z,13.10
2018-06-23T18:54:54.095Z,12.53
2018-06-23T18:57:21.342Z,13.60
2018-06-23T18:59:48.552Z,10.30
2018-06-23T19:02:15.804Z,10.83
2018-06-23T19:04:43.016Z,8.10
2018-06-23T19:07:10.348Z,12.20
2018-06-23T19:09:37.536Z,8.80
2018-06-23T19:12:04.871Z,8.87
2018-06-23T19:14:32.085Z,13.50
2018-06-23T19:16:59.315Z,10.63
2018-06-23T19:19:26.524Z,8.73
2018-06-23T19:21:53.757Z,12.20
2018-06-23T19:24:20.996Z,10.23
2018-06-23T19:26:48.196Z,10.90
2018-06-23T19:29:15.441Z,9.43
2018-06-23T19:31:42.656Z,9.90
2018-06-23T19:34:09.871Z,15.43
2018-06-23T19:36:37.175Z,9.43
2018-06-23T19:39:07.088Z,13.07
2018-06-23T19:41:34.351Z,13.17
2018-06-23T19:44:01.574Z,18.13
2018-06-23T19:46:28.776Z,12.50
2018-06-23T19:48:55.993Z,13.97
2018-06-23T19:51:23.244Z,14.20
2018-06-23T19:53:50.477Z,8.27
2018-06-23T19:56:17.748Z,18.33
2018-06-23T19:58:44.960Z,12.97
2018-06-23T20:01:12.192Z,11.57
2018-06-23T20:03:39.405Z,10.20
2018-06-23T20:06:07.060Z,14.73
2018-06-23T20:08:34.256Z,10.93
2018-06-23T20:11:01.467Z,10.13
2018-06-23T20:13:28.824Z,11.37
2018-06-23T20:15:56.322Z,10.53
2018-06-23T20:18:23.540Z,12.27
2018-06-23T20:20:50.963Z,13.10
2018-06-23T20:23:18.168Z,18.03
2018-06-23T20:25:46.313Z,10.50
2018-06-23T20:28:13.512Z,17.47
2018-06-23T20:30:40.720Z,12.80
2018-06-23T20:33:07.928Z,15.30
2018-06-23T20:35:35.156Z,12.57
2018-06-23T20:38:02.460Z,15.70
2018-06-23T20:40:29.663Z,11.43
2018-06-23T20:42:56.908Z,11.03
2018-06-23T20:45:24.104Z,13.03
2018-06-23T20:47:51.340Z,9.83
2018-06-23T20:50:18.603Z,13.60
2018-06-23T20:52:45.840Z,11.27
2018-06-23T20:55:13.066Z,10.83
2018-06-23T20:57:40.350Z,15.17
2018-06-23T21:00:07.598Z,15.83
2018-06-23T21:02:34.817Z,19.17
2018-06-23T21:05:02.068Z,23.83
2018-06-23T21:07:29.399Z,21.23
2018-06-23T21:09:56.512Z,23.17
2018-06-23T21:12:23.716Z,22.67
2018-06-23T21:14:50.956Z,34.03
2018-06-23T21:17:18.204Z,47.80
2018-06-23T21:19:45.424Z,47.83
2018-06-23T21:22:12.652Z,31.70
2018-06-23T21:24:40.081Z,19.03
2018-06-23T21:27:07.635Z,18.03
2018-06-23T21:29:34.864Z,14.70
2018-06-23T21:32:02.108Z,41.60
2018-06-23T21:34:29.328Z,32.03
2018-06-23T21:36:56.524Z,27.33
2018-06-23T21:39:23.755Z,19.40
2018-06-23T21:41:50.964Z,16.40
2018-06-23T21:44:18.304Z,19.03
2018-06-23T21:46:45.548Z,19.80
2018-06-23T21:49:12.772Z,15.93
2018-06-23T21:51:40.036Z,18.57
2018-06-23T21:54:07.309Z,14.43
2018-06-23T21:56:34.652Z,11.57
2018-06-23T21:59:01.952Z,12.13
2018-06-23T22:01:29.176Z,12.20
2018-06-23T22:03:56.431Z,16.70
2018-06-23T22:06:23.743Z,12.20
2018-06-23T22:08:50.948Z,10.93
2018-06-23T22:11:19.199Z,11.47
2018-06-23T22:13:46.432Z,15.87
2018-06-23T22:16:13.716Z,15.37
2018-06-23T22:18:40.944Z,12.23
2018-06-23T22:21:08.176Z,12.60
2018-06-23T22:23:35.399Z,11.60
2018-06-23T22:26:02.692Z,10.53
2018-06-23T22:28:29.947Z,12.50
2018-06-23T22:30:57.203Z,12.70
2018-06-23T22:33:24.432Z,12.43
2018-06-23T22:35:51.663Z,11.83
2018-06-23T22:38:18.936Z,11.10
2018-06-23T22:40:46.138Z,10.70
2018-06-23T22:43:13.391Z,13.63
2018-06-23T22:45:40.708Z,11.20
2018-06-23T22:48:07.924Z,10.90
2018-06-23T22:50:35.194Z,10.70
2018-06-23T22:53:02.425Z,14.27
2018-06-23T22:55:29.647Z,11.17
2018-06-23T22:57:56.871Z,10.07
2018-06-23T23:00:25.109Z,10.07
2018-06-23T23:02:52.328Z,22.33
2018-06-23T23:05:19.575Z,14.50
2018-06-23T23:07:46.892Z,12.37
2018-06-23T23:10:14.204Z,12.03
2018-06-23T23:12:41.596Z,8.93
2018-06-23T23:15:08.793Z,11.30
2018-06-23T23:17:36.032Z,9.77
2018-06-23T23:20:03.741Z,9.63
2018-06-23T23:22:31.114Z,11.73
2018-06-23T23:24:58.364Z,8.97
2018-06-23T23:27:25.688Z,8.47
2018-06-23T23:29:52.956Z,11.23
2018-06-23T23:32:20.188Z,9.20
2018-06-23T23:34:47.623Z,15.43
2018-06-23T23:37:14.928Z,10.73
2018-06-23T23:39:42.172Z,12.20
2018-06-23T23:42:09.408Z,11.77
2018-06-23T23:44:36.765Z,10.17
2018-06-23T23:47:04.000Z,10.20
2018-06-23T23:49:31.247Z,13.40
2018-06-23T23:51:58.524Z,10.33
2018-06-23T23:54:25.736Z,9.70
2018-06-23T23:56:52.987Z,13.13
2018-06-23T23:59:20.190Z,9.47
